sensor_id;sensor_type;location;lat;lon;timestamp;pressure;altitude;pressure_sealevel;temperature;humidity
19023;BME280;35226;48.606;8.858;2023-05-03T00:01:37;97035.69;;;14.24;100.00
19023;BME280;35226;48.606;8.858;2023-05-03T00:04:03;97038.41;;;14.15;100.00
19023;BME280;35226;48.606;8.858;2023-05-03T00:06:29;97038.31;;;14.06;100.00
19023;BME280;35226;48.606;8.858;2023-05-03T00:08:55;97045.06;;;14.18;100.00
19023;BME280;35226;48.606;8.858;2023-05-03T00:11:21;97048.03;;;14.23;100.00
19023;BME280;35226;48.606;8.858;2023-05-03T00:13:46;97042.03;;;14.25;100.00
19023;BME280;35226;48.606;8.858;2023-05-03T00:16:12;97047.59;;;14.25;100.00
19023;BME280;35226;48.606;8.858;2023-05-03T00:18:38;97045.44;;;13.94;100.00
19023;BME280;35226;48.606;8.858;2023-05-03T00:21:03;97041.63;;;14.14;100.00
19023;BME280;35226;48.606;8.858;2023-05-03T00:23:29;97043.34;;;14.33;100.00
19023;BME280;35226;48.606;8.858;2023-05-03T00:25:57;97032.22;;;14.33;100.00
19023;BME280;35226;48.606;8.858;2023-05-03T00:28:25;97038.66;;;14.30;100.00
19023;BME280;35226;48.606;8.858;2023-05-03T00:30:51;97040.38;;;14.27;100.00
19023;BME280;35226;48.606;8.858;2023-05-03T00:33:17;97031.69;;;14.25;100.00
19023;BME280;35226;48.606;8.858;2023-05-03T00:35:44;97034.06;;;14.14;100.00
19023;BME280;35226;48.606;8.858;2023-05-03T00:38:11;97037.91;;;14.29;100.00
19023;BME280;35226;48.606;8.858;2023-05-03T00:40:38;97031.63;;;14.51;100.00
19023;BME280;35226;48.606;8.858;2023-05-03T00:43:04;97022.38;;;14.54;100.00
19023;BME280;35226;48.606;8.858;2023-05-03T00:45:32;97024.06;;;14.51;100.00
19023;BME280;35226;48.606;8.858;2023-05-03T00:48:01;97017.94;;;14.56;100.00
19023;BME280;35226;48.606;8.858;2023-05-03T00:50:27;97015.63;;;14.42;100.00
19023;BME280;35226;48.606;8.858;2023-05-03T00:52:53;97013.03;;;14.26;100.00
19023;BME280;35226;48.606;8.858;2023-05-03T00:55:18;97012.09;;;14.41;100.00
19023;BME280;35226;48.606;8.858;2023-05-03T00:57:44;97016.31;;;14.33;100.00
19023;BME280;35226;48.606;8.858;2023-05-03T01:00:15;97016.44;;;14.30;100.00
19023;BME280;35226;48.606;8.858;2023-05-03T01:02:42;97017.91;;;14.22;100.00
19023;BME280;35226;48.606;8.858;2023-05-03T01:05:07;97022.88;;;14.05;100.00
19023;BME280;35226;48.606;8.858;2023-05-03T01:10:37;97021.41;;;14.00;100.00
19023;BME280;35226;48.606;8.858;2023-05-03T01:13:13;97018.00;;;13.96;100.00
19023;BME280;35226;48.606;8.858;2023-05-03T01:15:47;97021.72;;;14.15;100.00
19023;BME280;35226;48.606;8.858;2023-05-03T01:18:24;97021.22;;;13.95;100.00
19023;BME280;35226;48.606;8.858;2023-05-03T01:20:52;97016.78;;;13.85;100.00
19023;BME280;35226;48.606;8.858;2023-05-03T01:25:46;97008.22;;;13.92;100.00
19023;BME280;35226;48.606;8.858;2023-05-03T01:28:11;97010.03;;;13.73;100.00
19023;BME280;35226;48.606;8.858;2023-05-03T01:30:38;97010.50;;;13.59;100.00
19023;BME280;35226;48.606;8.858;2023-05-03T01:33:32;97006.88;;;13.49;100.00
19023;BME280;35226;48.606;8.858;2023-05-03T01:36:22;97006.97;;;13.58;100.00
19023;BME280;35226;48.606;8.858;2023-05-03T01:38:51;97006.28;;;13.42;100.00
19023;BME280;35226;48.606;8.858;2023-05-03T01:41:18;97000.03;;;13.76;100.00
19023;BME280;35226;48.606;8.858;2023-05-03T01:43:46;97006.63;;;13.44;100.00
19023;BME280;35226;48.606;8.858;2023-05-03T01:46:13;96999.63;;;13.64;100.00
19023;BME280;35226;48.606;8.858;2023-05-03T01:48:39;96993.09;;;13.58;100.00
19023;BME280;35226;48.606;8.858;2023-05-03T01:51:04;97002.47;;;13.74;100.00
19023;BME280;35226;48.606;8.858;2023-05-03T01:53:30;96994.75;;;13.56;100.00
19023;BME280;35226;48.606;8.858;2023-05-03T01:55:55;96991.41;;;13.61;100.00
19023;BME280;35226;48.606;8.858;2023-05-03T01:58:21;96990.97;;;13.50;100.00
19023;BME280;35226;48.606;8.858;2023-05-03T02:00:47;96995.19;;;13.42;100.00
19023;BME280;35226;48.606;8.858;2023-05-03T02:03:13;96998.53;;;13.49;100.00
19023;BME280;35226;48.606;8.858;2023-05-03T02:05:39;97002.75;;;13.28;100.00
19023;BME280;35226;48.606;8.858;2023-05-03T02:08:05;97003.84;;;13.44;100.00
19023;BME280;35226;48.606;8.858;2023-05-03T02:10:32;96999.66;;;13.26;100.00
19023;BME280;35226;48.606;8.858;2023-05-03T02:12:58;96997.75;;;13.11;100.00
19023;BME280;35226;48.606;8.858;2023-05-03T02:15:24;97000.50;;;13.11;100.00
19023;BME280;35226;48.606;8.858;2023-05-03T02:17:50;96997.53;;;13.18;100.00
19023;BME280;35226;48.606;8.858;2023-05-03T02:20:15;96993.66;;;13.15;100.00
19023;BME280;35226;48.606;8.858;2023-05-03T02:22:41;97004.38;;;13.13;100.00
19023;BME280;35226;48.606;8.858;2023-05-03T02:25:07;97006.75;;;13.15;100.00
19023;BME280;35226;48.606;8.858;2023-05-03T02:27:33;97003.88;;;13.18;100.00
19023;BME280;35226;48.606;8.858;2023-05-03T02:29:59;96999.28;;;12.99;100.00
19023;BME280;35226;48.606;8.858;2023-05-03T02:32:25;96987.53;;;13.08;100.00
19023;BME280;35226;48.606;8.858;2023-05-03T02:34:50;96993.59;;;13.03;100.00
19023;BME280;35226;48.606;8.858;2023-05-03T02:37:19;96992.06;;;13.02;100.00
19023;BME280;35226;48.606;8.858;2023-05-03T02:39:45;96995.94;;;12.91;100.00
19023;BME280;35226;48.606;8.858;2023-05-03T02:42:13;96990.19;;;12.98;100.00
19023;BME280;35226;48.606;8.858;2023-05-03T02:44:38;96988.72;;;12.94;100.00
19023;BME280;35226;48.606;8.858;2023-05-03T02:47:04;96993.81;;;12.83;100.00
19023;BME280;35226;48.606;8.858;2023-05-03T02:49:29;96988.28;;;12.83;100.00
19023;BME280;35226;48.606;8.858;2023-05-03T02:51:55;96988.78;;;12.65;100.00
19023;BME280;35226;48.606;8.858;2023-05-03T02:54:22;96992.25;;;12.69;100.00
19023;BME280;35226;48.606;8.858;2023-05-03T02:56:48;96989.69;;;12.62;100.00
19023;BME280;35226;48.606;8.858;2023-05-03T02:59:13;96987.78;;;12.59;100.00
19023;BME280;35226;48.606;8.858;2023-05-03T03:01:39;96994.91;;;12.73;100.00
19023;BME280;35226;48.606;8.858;2023-05-03T03:04:05;96992.34;;;12.66;100.00
19023;BME280;35226;48.606;8.858;2023-05-03T03:06:31;96989.34;;;12.60;100.00
19023;BME280;35226;48.606;8.858;2023-05-03T03:08:57;96988.13;;;12.74;100.00
19023;BME280;35226;48.606;8.858;2023-05-03T03:11:23;96989.69;;;12.62;100.00
19023;BME280;35226;48.606;8.858;2023-05-03T03:13:50;96994.44;;;12.62;100.00
19023;BME280;35226;48.606;8.858;2023-05-03T03:16:16;96988.66;;;12.56;100.00
19023;BME280;35226;48.606;8.858;2023-05-03T03:18:41;96991.19;;;12.50;100.00
19023;BME280;35226;48.606;8.858;2023-05-03T03:21:07;96984.75;;;12.41;100.00
19023;BME280;35226;48.606;8.858;2023-05-03T03:23:34;96989.38;;;12.44;100.00
19023;BME280;35226;48.606;8.858;2023-05-03T03:26:00;96984.06;;;12.37;100.00
19023;BME280;35226;48.606;8.858;2023-05-03T03:28:25;96986.94;;;12.33;100.00
19023;BME280;35226;48.606;8.858;2023-05-03T03:30:52;96987.91;;;12.27;100.00
19023;BME280;35226;48.606;8.858;2023-05-03T03:33:23;96985.25;;;12.23;100.00
19023;BME280;35226;48.606;8.858;2023-05-03T03:35:52;96988.94;;;12.33;100.00
19023;BME280;35226;48.606;8.858;2023-05-03T03:38:21;96988.25;;;12.29;100.00
19023;BME280;35226;48.606;8.858;2023-05-03T03:40:54;96983.69;;;12.22;100.00
19023;BME280;35226;48.606;8.858;2023-05-03T03:43:20;96985.94;;;12.40;100.00
19023;BME280;35226;48.606;8.858;2023-05-03T03:45:46;96986.72;;;12.40;100.00
19023;BME280;35226;48.606;8.858;2023-05-03T03:48:14;96987.31;;;12.48;100.00
19023;BME280;35226;48.606;8.858;2023-05-03T03:50:40;96992.53;;;12.58;100.00
19023;BME280;35226;48.606;8.858;2023-05-03T03:53:06;96996.63;;;12.54;100.00
19023;BME280;35226;48.606;8.858;2023-05-03T03:55:34;96997.19;;;12.49;100.00
19023;BME280;35226;48.606;8.858;2023-05-03T03:58:03;96999.66;;;12.31;100.00
19023;BME280;35226;48.606;8.858;2023-05-03T04:00:29;97001.78;;;12.39;100.00
19023;BME280;35226;48.606;8.858;2023-05-03T04:03:04;96998.47;;;12.44;100.00
19023;BME280;35226;48.606;8.858;2023-05-03T04:05:31;96995.81;;;12.41;100.00
19023;BME280;35226;48.606;8.858;2023-05-03T04:07:57;97002.03;;;12.45;100.00
19023;BME280;35226;48.606;8.858;2023-05-03T04:10:26;97005.69;;;12.42;100.00
19023;BME280;35226;48.606;8.858;2023-05-03T04:12:52;97012.53;;;12.37;100.00
19023;BME280;35226;48.606;8.858;2023-05-03T04:15:18;97009.47;;;12.19;100.00
19023;BME280;35226;48.606;8.858;2023-05-03T04:17:45;97019.22;;;12.40;100.00
19023;BME280;35226;48.606;8.858;2023-05-03T04:20:11;97022.19;;;12.33;100.00
19023;BME280;35226;48.606;8.858;2023-05-03T04:22:40;97028.34;;;12.24;100.00
19023;BME280;35226;48.606;8.858;2023-05-03T04:25:10;97030.22;;;12.27;100.00
19023;BME280;35226;48.606;8.858;2023-05-03T04:27:39;97032.84;;;12.18;100.00
19023;BME280;35226;48.606;8.858;2023-05-03T04:30:06;97031.13;;;12.24;100.00
19023;BME280;35226;48.606;8.858;2023-05-03T04:32:32;97023.13;;;12.26;100.00
19023;BME280;35226;48.606;8.858;2023-05-03T04:35:08;97026.16;;;12.32;100.00
19023;BME280;35226;48.606;8.858;2023-05-03T04:37:36;97018.00;;;12.41;100.00
19023;BME280;35226;48.606;8.858;2023-05-03T04:40:03;97027.88;;;12.42;100.00
19023;BME280;35226;48.606;8.858;2023-05-03T04:42:32;97024.19;;;12.45;100.00
19023;BME280;35226;48.606;8.858;2023-05-03T04:44:58;97030.72;;;12.38;100.00
19023;BME280;35226;48.606;8.858;2023-05-03T04:47:23;97019.84;;;12.31;100.00
19023;BME280;35226;48.606;8.858;2023-05-03T04:49:50;97023.75;;;12.46;100.00
19023;BME280;35226;48.606;8.858;2023-05-03T04:57:33;97029.06;;;12.70;100.00
19023;BME280;35226;48.606;8.858;2023-05-03T04:59:59;97029.13;;;12.53;100.00
19023;BME280;35226;48.606;8.858;2023-05-03T05:04:59;97037.72;;;12.72;100.00
19023;BME280;35226;48.606;8.858;2023-05-03T05:07:25;97042.97;;;12.82;100.00
19023;BME280;35226;48.606;8.858;2023-05-03T05:09:53;97039.19;;;12.89;100.00
19023;BME280;35226;48.606;8.858;2023-05-03T05:17:34;97050.63;;;13.04;100.00
19023;BME280;35226;48.606;8.858;2023-05-03T05:20:02;97047.34;;;12.67;100.00
19023;BME280;35226;48.606;8.858;2023-05-03T05:22:32;97047.81;;;12.78;100.00
19023;BME280;35226;48.606;8.858;2023-05-03T05:24:59;97044.78;;;12.60;100.00
19023;BME280;35226;48.606;8.858;2023-05-03T05:27:26;97045.31;;;12.96;100.00
19023;BME280;35226;48.606;8.858;2023-05-03T05:29:53;97050.06;;;12.96;100.00
19023;BME280;35226;48.606;8.858;2023-05-03T05:32:19;97052.97;;;13.05;100.00
19023;BME280;35226;48.606;8.858;2023-05-03T05:34:44;97048.19;;;12.93;100.00
19023;BME280;35226;48.606;8.858;2023-05-03T05:37:16;97046.06;;;12.84;100.00
19023;BME280;35226;48.606;8.858;2023-05-03T05:39:42;97056.50;;;12.93;100.00
19023;BME280;35226;48.606;8.858;2023-05-03T05:42:08;97057.50;;;12.86;100.00
19023;BME280;35226;48.606;8.858;2023-05-03T05:44:34;97050.69;;;13.42;100.00
19023;BME280;35226;48.606;8.858;2023-05-03T05:47:00;97055.28;;;13.48;100.00
19023;BME280;35226;48.606;8.858;2023-05-03T05:49:25;97055.81;;;13.56;100.00
19023;BME280;35226;48.606;8.858;2023-05-03T05:51:51;97050.16;;;13.34;100.00
19023;BME280;35226;48.606;8.858;2023-05-03T05:54:16;97053.47;;;13.54;100.00
19023;BME280;35226;48.606;8.858;2023-05-03T05:56:43;97050.16;;;13.47;100.00
19023;BME280;35226;48.606;8.858;2023-05-03T05:59:08;97050.94;;;13.60;100.00
19023;BME280;35226;48.606;8.858;2023-05-03T06:01:35;97046.50;;;13.50;100.00
19023;BME280;35226;48.606;8.858;2023-05-03T06:04:02;97043.84;;;13.59;100.00
19023;BME280;35226;48.606;8.858;2023-05-03T06:06:28;97054.91;;;13.71;100.00
19023;BME280;35226;48.606;8.858;2023-05-03T06:08:54;97050.16;;;13.59;100.00
19023;BME280;35226;48.606;8.858;2023-05-03T06:11:20;97051.16;;;13.40;100.00
19023;BME280;35226;48.606;8.858;2023-05-03T06:13:46;97051.72;;;13.60;100.00
19023;BME280;35226;48.606;8.858;2023-05-03T06:16:14;97049.59;;;13.64;100.00
19023;BME280;35226;48.606;8.858;2023-05-03T06:18:40;97047.50;;;13.56;100.00
19023;BME280;35226;48.606;8.858;2023-05-03T06:21:06;97045.16;;;13.67;100.00
19023;BME280;35226;48.606;8.858;2023-05-03T06:23:32;97049.50;;;13.68;100.00
19023;BME280;35226;48.606;8.858;2023-05-03T06:25:58;97048.44;;;14.00;100.00
19023;BME280;35226;48.606;8.858;2023-05-03T06:28:25;97052.56;;;13.95;100.00
19023;BME280;35226;48.606;8.858;2023-05-03T06:30:53;97053.59;;;13.76;100.00
19023;BME280;35226;48.606;8.858;2023-05-03T06:33:18;97045.00;;;13.83;100.00
19023;BME280;35226;48.606;8.858;2023-05-03T06:35:46;97049.34;;;13.97;100.00
19023;BME280;35226;48.606;8.858;2023-05-03T06:38:16;97052.44;;;13.99;100.00
19023;BME280;35226;48.606;8.858;2023-05-03T06:40:44;97057.19;;;14.11;100.00
19023;BME280;35226;48.606;8.858;2023-05-03T06:43:10;97061.66;;;14.08;100.00
19023;BME280;35226;48.606;8.858;2023-05-03T06:45:42;97056.88;;;13.96;100.00
19023;BME280;35226;48.606;8.858;2023-05-03T06:48:08;97060.97;;;14.04;100.00
19023;BME280;35226;48.606;8.858;2023-05-03T06:50:34;97059.38;;;14.29;100.00
19023;BME280;35226;48.606;8.858;2023-05-03T06:53:01;97057.94;;;14.24;100.00
19023;BME280;35226;48.606;8.858;2023-05-03T06:55:26;97058.97;;;14.18;100.00
19023;BME280;35226;48.606;8.858;2023-05-03T06:57:52;97058.28;;;14.14;100.00
19023;BME280;35226;48.606;8.858;2023-05-03T07:00:19;97056.00;;;13.99;100.00
19023;BME280;35226;48.606;8.858;2023-05-03T07:02:46;97048.19;;;14.20;100.00
19023;BME280;35226;48.606;8.858;2023-05-03T07:05:11;97047.00;;;14.30;100.00
19023;BME280;35226;48.606;8.858;2023-05-03T07:07:37;97040.13;;;14.34;100.00
19023;BME280;35226;48.606;8.858;2023-05-03T07:10:03;97039.72;;;14.58;100.00
19023;BME280;35226;48.606;8.858;2023-05-03T07:12:28;97049.13;;;14.38;100.00
19023;BME280;35226;48.606;8.858;2023-05-03T07:14:54;97036.81;;;14.39;100.00
19023;BME280;35226;48.606;8.858;2023-05-03T07:17:20;97044.88;;;14.47;100.00
19023;BME280;35226;48.606;8.858;2023-05-03T07:19:46;97046.25;;;14.64;100.00
19023;BME280;35226;48.606;8.858;2023-05-03T07:22:13;97048.19;;;14.54;100.00
19023;BME280;35226;48.606;8.858;2023-05-03T07:24:39;97046.56;;;14.31;100.00
19023;BME280;35226;48.606;8.858;2023-05-03T07:27:04;97034.66;;;14.43;100.00
19023;BME280;35226;48.606;8.858;2023-05-03T07:29:31;97037.44;;;14.43;100.00
19023;BME280;35226;48.606;8.858;2023-05-03T07:31:56;97041.19;;;14.50;100.00
19023;BME280;35226;48.606;8.858;2023-05-03T07:34:22;97036.28;;;14.54;100.00
19023;BME280;35226;48.606;8.858;2023-05-03T07:36:48;97037.44;;;14.65;100.00
19023;BME280;35226;48.606;8.858;2023-05-03T07:39:13;97030.53;;;14.70;100.00
19023;BME280;35226;48.606;8.858;2023-05-03T07:41:39;97026.63;;;14.89;100.00
19023;BME280;35226;48.606;8.858;2023-05-03T07:44:04;97020.56;;;14.81;100.00
19023;BME280;35226;48.606;8.858;2023-05-03T07:46:30;97017.25;;;14.96;100.00
19023;BME280;35226;48.606;8.858;2023-05-03T07:49:00;97024.50;;;14.93;100.00
19023;BME280;35226;48.606;8.858;2023-05-03T07:51:26;97028.63;;;14.89;100.00
19023;BME280;35226;48.606;8.858;2023-05-03T07:53:53;97024.16;;;15.13;100.00
19023;BME280;35226;48.606;8.858;2023-05-03T07:56:21;97027.22;;;15.06;100.00
19023;BME280;35226;48.606;8.858;2023-05-03T07:58:46;97024.69;;;15.30;100.00
19023;BME280;35226;48.606;8.858;2023-05-03T08:01:12;97031.00;;;15.21;100.00
19023;BME280;35226;48.606;8.858;2023-05-03T08:03:37;97031.72;;;15.12;100.00
19023;BME280;35226;48.606;8.858;2023-05-03T08:06:03;97024.31;;;15.18;100.00
19023;BME280;35226;48.606;8.858;2023-05-03T08:08:29;97020.13;;;15.45;100.00
19023;BME280;35226;48.606;8.858;2023-05-03T08:10:56;97022.34;;;15.28;100.00
19023;BME280;35226;48.606;8.858;2023-05-03T08:13:21;97026.75;;;15.47;100.00
19023;BME280;35226;48.606;8.858;2023-05-03T08:15:48;97018.78;;;16.17;100.00
19023;BME280;35226;48.606;8.858;2023-05-03T08:18:13;97011.22;;;16.63;100.00
19023;BME280;35226;48.606;8.858;2023-05-03T08:20:39;97022.94;;;17.13;100.00
19023;BME280;35226;48.606;8.858;2023-05-03T08:23:04;97020.19;;;16.85;100.00
19023;BME280;35226;48.606;8.858;2023-05-03T08:25:30;97022.06;;;16.79;100.00
19023;BME280;35226;48.606;8.858;2023-05-03T08:27:56;97020.97;;;16.49;100.00
19023;BME280;35226;48.606;8.858;2023-05-03T08:30:22;97020.13;;;17.13;100.00
19023;BME280;35226;48.606;8.858;2023-05-03T08:32:47;97023.75;;;16.86;100.00
19023;BME280;35226;48.606;8.858;2023-05-03T08:35:13;97021.28;;;16.70;100.00
19023;BME280;35226;48.606;8.858;2023-05-03T08:37:40;97026.06;;;16.96;100.00
19023;BME280;35226;48.606;8.858;2023-05-03T08:40:07;97024.47;;;17.05;100.00
19023;BME280;35226;48.606;8.858;2023-05-03T08:42:38;97023.41;;;17.11;100.00
19023;BME280;35226;48.606;8.858;2023-05-03T08:45:05;97020.13;;;17.22;100.00
19023;BME280;35226;48.606;8.858;2023-05-03T08:47:32;97016.34;;;17.25;100.00
19023;BME280;35226;48.606;8.858;2023-05-03T08:50:03;97019.50;;;17.60;100.00
19023;BME280;35226;48.606;8.858;2023-05-03T08:52:29;97012.25;;;17.44;100.00
19023;BME280;35226;48.606;8.858;2023-05-03T08:54:55;97013.13;;;17.59;100.00
19023;BME280;35226;48.606;8.858;2023-05-03T08:57:22;97019.50;;;17.60;100.00
19023;BME280;35226;48.606;8.858;2023-05-03T08:59:53;97025.88;;;17.09;100.00
19023;BME280;35226;48.606;8.858;2023-05-03T09:02:21;97016.34;;;17.76;100.00
19023;BME280;35226;48.606;8.858;2023-05-03T09:04:47;97014.94;;;17.38;100.00
19023;BME280;35226;48.606;8.858;2023-05-03T09:07:12;97024.31;;;17.92;100.00
19023;BME280;35226;48.606;8.858;2023-05-03T09:09:40;97033.28;;;17.72;100.00
19023;BME280;35226;48.606;8.858;2023-05-03T09:12:05;97032.16;;;17.79;100.00
19023;BME280;35226;48.606;8.858;2023-05-03T09:14:41;97024.31;;;18.16;100.00
19023;BME280;35226;48.606;8.858;2023-05-03T09:17:15;97027.06;;;18.25;100.00
19023;BME280;35226;48.606;8.858;2023-05-03T09:19:55;97025.75;;;18.59;100.00
19023;BME280;35226;48.606;8.858;2023-05-03T09:22:24;97015.56;;;18.47;100.00
19023;BME280;35226;48.606;8.858;2023-05-03T09:25:00;97013.50;;;18.71;100.00
19023;BME280;35226;48.606;8.858;2023-05-03T09:27:26;97007.34;;;18.67;100.00
19023;BME280;35226;48.606;8.858;2023-05-03T09:29:53;97000.28;;;18.72;100.00
19023;BME280;35226;48.606;8.858;2023-05-03T09:32:19;97000.31;;;18.48;100.00
19023;BME280;35226;48.606;8.858;2023-05-03T09:34:46;97004.38;;;19.15;100.00
19023;BME280;35226;48.606;8.858;2023-05-03T09:37:12;96997.66;;;19.42;100.00
19023;BME280;35226;48.606;8.858;2023-05-03T09:39:42;97001.09;;;18.87;98.38
19023;BME280;35226;48.606;8.858;2023-05-03T09:42:14;96996.25;;;19.17;94.77
19023;BME280;35226;48.606;8.858;2023-05-03T09:44:47;97001.94;;;18.78;95.49
19023;BME280;35226;48.606;8.858;2023-05-03T09:47:16;96994.13;;;19.12;95.65
19023;BME280;35226;48.606;8.858;2023-05-03T09:49:42;96991.00;;;19.39;93.44
19023;BME280;35226;48.606;8.858;2023-05-03T09:52:08;96992.75;;;19.37;91.28
19023;BME280;35226;48.606;8.858;2023-05-03T09:54:34;96986.53;;;19.62;90.13
19023;BME280;35226;48.606;8.858;2023-05-03T09:57:04;96990.81;;;19.57;86.39
19023;BME280;35226;48.606;8.858;2023-05-03T09:59:31;96992.38;;;19.58;88.25
19023;BME280;35226;48.606;8.858;2023-05-03T10:01:59;96987.78;;;19.61;85.81
19023;BME280;35226;48.606;8.858;2023-05-03T10:04:27;96992.06;;;20.12;96.52
19023;BME280;35226;48.606;8.858;2023-05-03T10:06:58;96988.00;;;20.13;86.73
19023;BME280;35226;48.606;8.858;2023-05-03T10:09:35;96984.78;;;20.20;81.89
19023;BME280;35226;48.606;8.858;2023-05-03T10:12:06;96987.38;;;20.64;78.44
19023;BME280;35226;48.606;8.858;2023-05-03T10:14:32;96982.44;;;21.36;81.44
19023;BME280;35226;48.606;8.858;2023-05-03T10:17:00;96974.03;;;21.11;75.65
19023;BME280;35226;48.606;8.858;2023-05-03T10:19:38;96984.88;;;21.55;70.11
19023;BME280;35226;48.606;8.858;2023-05-03T10:22:08;96972.25;;;21.76;70.84
19023;BME280;35226;48.606;8.858;2023-05-03T10:24:35;96966.06;;;21.66;67.26
19023;BME280;35226;48.606;8.858;2023-05-03T10:27:03;96968.44;;;21.11;59.00
19023;BME280;35226;48.606;8.858;2023-05-03T10:35:08;96971.72;;;21.72;58.18
19023;BME280;35226;48.606;8.858;2023-05-03T10:37:34;96973.81;;;22.25;59.20
19023;BME280;35226;48.606;8.858;2023-05-03T10:40:14;96973.41;;;22.55;61.71
19023;BME280;35226;48.606;8.858;2023-05-03T10:42:51;96972.13;;;22.56;53.96
19023;BME280;35226;48.606;8.858;2023-05-03T10:45:20;96967.13;;;22.87;53.27
19023;BME280;35226;48.606;8.858;2023-05-03T10:50:38;96954.59;;;23.39;49.02
19023;BME280;35226;48.606;8.858;2023-05-03T10:53:03;96959.97;;;23.03;47.87
19023;BME280;35226;48.606;8.858;2023-05-03T10:55:29;96956.66;;;23.33;51.80
19023;BME280;35226;48.606;8.858;2023-05-03T10:57:56;96952.81;;;23.52;46.79
19023;BME280;35226;48.606;8.858;2023-05-03T11:05:42;96946.88;;;23.89;48.15
19023;BME280;35226;48.606;8.858;2023-05-03T11:08:13;96937.78;;;24.13;46.61
19023;BME280;35226;48.606;8.858;2023-05-03T11:10:43;96937.09;;;23.90;44.64
19023;BME280;35226;48.606;8.858;2023-05-03T11:13:08;96943.06;;;23.65;45.00
19023;BME280;35226;48.606;8.858;2023-05-03T11:15:34;96935.81;;;23.91;43.52
19023;BME280;35226;48.606;8.858;2023-05-03T11:18:01;96935.88;;;23.52;43.30
19023;BME280;35226;48.606;8.858;2023-05-03T11:20:26;96937.94;;;23.69;43.89
19023;BME280;35226;48.606;8.858;2023-05-03T11:22:52;96930.50;;;23.32;44.03
19023;BME280;35226;48.606;8.858;2023-05-03T11:25:18;96927.41;;;23.47;43.93
19023;BME280;35226;48.606;8.858;2023-05-03T11:27:44;96920.78;;;23.16;43.74
19023;BME280;35226;48.606;8.858;2023-05-03T11:30:12;96914.88;;;23.53;42.18
19023;BME280;35226;48.606;8.858;2023-05-03T11:32:38;96913.25;;;23.80;42.70
19023;BME280;35226;48.606;8.858;2023-05-03T11:35:07;96910.09;;;24.06;42.10
19023;BME280;35226;48.606;8.858;2023-05-03T11:37:33;96909.41;;;23.83;41.63
19023;BME280;35226;48.606;8.858;2023-05-03T11:39:59;96903.75;;;23.89;40.51
19023;BME280;35226;48.606;8.858;2023-05-03T11:42:25;96908.53;;;24.16;42.15
19023;BME280;35226;48.606;8.858;2023-05-03T11:44:54;96912.41;;;24.65;42.76
19023;BME280;35226;48.606;8.858;2023-05-03T11:47:23;96906.09;;;24.43;41.76
19023;BME280;35226;48.606;8.858;2023-05-03T11:49:54;96906.66;;;24.36;41.08
19023;BME280;35226;48.606;8.858;2023-05-03T11:52:25;96906.56;;;24.52;40.55
19023;BME280;35226;48.606;8.858;2023-05-03T11:54:54;96907.47;;;24.71;39.59
19023;BME280;35226;48.606;8.858;2023-05-03T11:57:20;96902.19;;;24.51;38.38
19023;BME280;35226;48.606;8.858;2023-05-03T11:59:46;96905.03;;;24.51;39.58
19023;BME280;35226;48.606;8.858;2023-05-03T12:02:14;96909.56;;;24.65;39.57
19023;BME280;35226;48.606;8.858;2023-05-03T12:04:41;96897.50;;;24.65;38.60
19023;BME280;35226;48.606;8.858;2023-05-03T12:07:10;96894.66;;;25.06;38.36
19023;BME280;35226;48.606;8.858;2023-05-03T12:09:38;96900.91;;;24.88;36.71
19023;BME280;35226;48.606;8.858;2023-05-03T12:12:04;96906.31;;;24.97;36.92
19023;BME280;35226;48.606;8.858;2023-05-03T12:15:00;96903.09;;;25.12;36.77
19023;BME280;35226;48.606;8.858;2023-05-03T12:17:33;96901.69;;;25.54;38.41
19023;BME280;35226;48.606;8.858;2023-05-03T12:20:17;96908.63;;;25.83;37.70
19023;BME280;35226;48.606;8.858;2023-05-03T12:22:42;96905.13;;;25.71;36.25
19023;BME280;35226;48.606;8.858;2023-05-03T12:25:11;96907.88;;;25.22;36.39
19023;BME280;35226;48.606;8.858;2023-05-03T12:27:37;96901.63;;;25.59;36.51
19023;BME280;35226;48.606;8.858;2023-05-03T12:30:02;96895.75;;;25.27;36.60
19023;BME280;35226;48.606;8.858;2023-05-03T12:32:31;96894.69;;;25.30;38.02
19023;BME280;35226;48.606;8.858;2023-05-03T12:34:57;96899.41;;;25.47;36.50
19023;BME280;35226;48.606;8.858;2023-05-03T12:37:23;96883.03;;;25.15;35.43
19023;BME280;35226;48.606;8.858;2023-05-03T12:39:48;96887.66;;;25.67;36.76
19023;BME280;35226;48.606;8.858;2023-05-03T12:42:14;96873.66;;;25.99;34.25
19023;BME280;35226;48.606;8.858;2023-05-03T12:44:39;96874.19;;;25.97;35.97
19023;BME280;35226;48.606;8.858;2023-05-03T12:47:06;96875.22;;;26.00;35.04
19023;BME280;35226;48.606;8.858;2023-05-03T12:49:32;96871.13;;;26.38;35.03
19023;BME280;35226;48.606;8.858;2023-05-03T12:51:58;96862.19;;;26.53;35.06
19023;BME280;35226;48.606;8.858;2023-05-03T12:54:27;96861.59;;;26.54;34.07
19023;BME280;35226;48.606;8.858;2023-05-03T12:56:53;96866.66;;;26.80;34.10
19023;BME280;35226;48.606;8.858;2023-05-03T12:59:19;96862.53;;;26.63;32.75
19023;BME280;35226;48.606;8.858;2023-05-03T13:01:45;96864.78;;;27.02;37.35
19023;BME280;35226;48.606;8.858;2023-05-03T13:04:10;96860.97;;;26.99;35.65
19023;BME280;35226;48.606;8.858;2023-05-03T13:06:36;96861.28;;;26.02;34.63
19023;BME280;35226;48.606;8.858;2023-05-03T13:09:03;96868.59;;;26.35;34.30
19023;BME280;35226;48.606;8.858;2023-05-03T13:11:32;96862.00;;;26.27;33.94
19023;BME280;35226;48.606;8.858;2023-05-03T13:13:58;96859.63;;;26.49;33.52
19023;BME280;35226;48.606;8.858;2023-05-03T13:16:24;96862.78;;;26.46;34.23
19023;BME280;35226;48.606;8.858;2023-05-03T13:18:50;96854.66;;;26.87;33.52
19023;BME280;35226;48.606;8.858;2023-05-03T13:21:20;96856.19;;;26.38;32.48
19023;BME280;35226;48.606;8.858;2023-05-03T13:23:45;96856.44;;;26.90;33.51
19023;BME280;35226;48.606;8.858;2023-05-03T13:26:11;96852.81;;;26.58;32.48